Accueil
METAR-TAF:

METAR-TAF

Aéroports :

Aéroport international d'Exeter

Exeter, Angleterre

latitude: 50-44N, longitude: 003-25W, altitude: 30 m

Observation

Le bulletin a été fait il y a 14 minutes, à 07:50 UTC
Vent 10 kt de nord/nord-est
Température 10°C
Humidité 93%
Pression 1009 hPa
Visibilité 10 km ou plus
Nuages fragmentés à une hauteur de 1300 ft
Nuages fragmentés à une hauteur de 2500 ft

METAR: EGTE 150750Z 03010KT 9999 BKN013 BKN025 10/09 Q1009

Heure: 09:04 (08:04 UTC)

Prévision

Le bulletin a été fait il y a 2 heures et 46 minutes, à 05:18 UTC
Prévision valable du 15 à 06 UTC au 15 à 15 UTC
Vent 9 kt de nord/nord-est
Visibilité 10 km ou plus
Nuages épars à une hauteur de 2000 ft
Temporairement
du 15 à 06 UTC au 15 à 15 UTC
Visibilité: 8000 m
Nuages fragmentés à une hauteur de 1200 ft
pluie faible

TAF: EGTE 150518Z 1506/1515 02009KT 9999 SCT020 TEMPO 1506/1515 8000 -RA BKN012

Observations et prévisions météorologiques de plus de 4000 aéroports (messages METAR et TAF).

Les stations disponibles sont représentées par des disques jaunes et rouges sur la carte.

Passer la souris dessus pour voir le nom de la station.

Cliquer dessus pour voir les observations et prévisions météorologiques.

Pour changer de carte: cliquez sur les boutons verts avec une croix noire pour zoomer, sur le bouton vert avec un tiret pour effectuer un zoom arrière, ou sur les flèches vertes pour les cartes adjacentes.


METAR-TAF: